createdAt,value
2022-12-05T00:00:40.857Z,9.719114
2022-12-05T00:01:41.003Z,9.719090
2022-12-05T00:02:40.933Z,9.719111
2022-12-05T00:03:40.876Z,9.719130
2022-12-05T00:04:40.887Z,9.719181
2022-12-05T00:05:40.872Z,9.719231
2022-12-05T00:06:40.806Z,9.719158
2022-12-05T00:07:40.872Z,9.719151
2022-12-05T00:08:40.826Z,9.719184
2022-12-05T00:09:40.797Z,9.719122
2022-12-05T00:10:40.752Z,9.719261
2022-12-05T00:11:40.750Z,9.719261
2022-12-05T00:12:40.755Z,9.719288
2022-12-05T00:13:40.718Z,9.719260
2022-12-05T00:14:40.726Z,9.719213
2022-12-05T00:15:40.797Z,9.719230
2022-12-05T00:16:40.815Z,9.719315
2022-12-05T00:17:40.780Z,9.719292
2022-12-05T00:18:40.732Z,9.719310
2022-12-05T00:19:40.680Z,9.719333
2022-12-05T00:20:40.672Z,9.719254
2022-12-05T00:21:40.727Z,9.719209
2022-12-05T00:22:40.644Z,9.719284
2022-12-05T00:23:40.629Z,9.719353
2022-12-05T00:24:40.617Z,9.719293
2022-12-05T00:25:40.613Z,9.719249
2022-12-05T00:26:40.623Z,9.719229
2022-12-05T00:27:40.592Z,9.719264
2022-12-05T00:28:40.592Z,9.719139
2022-12-05T00:29:40.568Z,9.719090
2022-12-05T00:30:40.571Z,9.719138
2022-12-05T00:31:40.595Z,9.719097
2022-12-05T00:32:40.563Z,9.719142
2022-12-05T00:33:40.534Z,9.719163
2022-12-05T00:34:40.513Z,9.719061
2022-12-05T00:35:40.501Z,9.719199
2022-12-05T00:36:40.499Z,9.719232
2022-12-05T00:37:40.521Z,9.719224
2022-12-05T00:38:40.487Z,9.719208
2022-12-05T00:39:40.483Z,9.719263
2022-12-05T00:40:40.469Z,9.719246
2022-12-05T00:41:40.455Z,9.719243
2022-12-05T00:42:40.438Z,9.719257
2022-12-05T00:43:40.456Z,9.719218
2022-12-05T00:44:40.436Z,9.719168
2022-12-05T00:45:40.512Z,9.719051
2022-12-05T00:46:40.405Z,9.719151
2022-12-05T00:47:40.400Z,9.719026
2022-12-05T00:48:40.395Z,9.719017
2022-12-05T00:49:40.374Z,9.719069
2022-12-05T00:50:40.387Z,9.719259
2022-12-05T00:51:40.356Z,9.719224
2022-12-05T00:52:40.338Z,9.719215
2022-12-05T00:53:40.355Z,9.719229
2022-12-05T00:54:40.327Z,9.719394
2022-12-05T00:55:40.309Z,9.719372
2022-12-05T00:56:40.323Z,9.719612
2022-12-05T00:57:40.316Z,9.719515
2022-12-05T00:58:40.289Z,9.719558
2022-12-05T00:59:40.310Z,9.719561
2022-12-05T01:00:40.263Z,9.719333
2022-12-05T01:01:40.416Z,9.719217
2022-12-05T01:02:40.277Z,9.719173
2022-12-05T01:03:40.252Z,9.719312
2022-12-05T01:04:40.263Z,9.719391
2022-12-05T01:05:40.237Z,9.719582
2022-12-05T01:06:40.221Z,9.719429
2022-12-05T01:07:40.229Z,9.719417
2022-12-05T01:08:40.192Z,9.719305
2022-12-05T01:09:40.191Z,9.719337
2022-12-05T01:10:40.185Z,9.719463
2022-12-05T01:11:41.637Z,9.719229
2022-12-05T01:12:41.180Z,9.719252
2022-12-05T01:13:40.139Z,9.719319
2022-12-05T01:14:40.138Z,9.719303
2022-12-05T01:15:40.121Z,9.719402
2022-12-05T01:16:40.205Z,9.719328
2022-12-05T01:17:40.135Z,9.719165
2022-12-05T01:18:40.093Z,9.719257
2022-12-05T01:19:40.084Z,9.719249
2022-12-05T01:20:40.078Z,9.719375
2022-12-05T01:21:40.091Z,9.719314
2022-12-05T01:22:40.056Z,9.719202
2022-12-05T01:23:40.066Z,9.719287
2022-12-05T01:24:40.060Z,9.719417
2022-12-05T01:25:40.027Z,9.719534
2022-12-05T01:26:40.007Z,9.719307
2022-12-05T01:27:40.001Z,9.719261
2022-12-05T01:28:40.054Z,9.719385
2022-12-05T01:29:40.001Z,9.719404
2022-12-05T01:30:39.977Z,9.719316
2022-12-05T01:31:40.050Z,9.719207
2022-12-05T01:32:39.966Z,9.719310
2022-12-05T01:33:39.953Z,9.719352
2022-12-05T01:34:39.964Z,9.719221
2022-12-05T01:35:39.910Z,9.719246
2022-12-05T01:36:39.908Z,9.719252
2022-12-05T01:37:39.915Z,9.719312
2022-12-05T01:38:39.893Z,9.719342
2022-12-05T01:39:39.896Z,9.719087
2022-12-05T01:40:39.870Z,9.719541
2022-12-05T01:41:39.887Z,9.719857
2022-12-05T01:42:39.885Z,9.720306
2022-12-05T01:43:39.847Z,9.719778
2022-12-05T01:44:39.864Z,9.719664
2022-12-05T01:45:39.870Z,9.719576
2022-12-05T01:46:39.802Z,9.719238
2022-12-05T01:47:39.800Z,9.719007
2022-12-05T01:48:39.800Z,9.719267
2022-12-05T01:49:39.808Z,9.719363
2022-12-05T01:50:39.779Z,9.719405
2022-12-05T01:51:39.780Z,9.719536
2022-12-05T01:52:39.760Z,9.719518
2022-12-05T01:53:39.740Z,9.719232
2022-12-05T01:54:39.736Z,9.719369
2022-12-05T01:55:39.745Z,9.719363
2022-12-05T01:56:39.739Z,9.719548
2022-12-05T01:57:39.755Z,9.719548
2022-12-05T01:58:39.701Z,9.719334
2022-12-05T01:59:39.709Z,9.719389
2022-12-05T02:00:39.671Z,9.719349
2022-12-05T02:01:39.718Z,9.719394
2022-12-05T02:02:39.707Z,9.719491
2022-12-05T02:03:39.645Z,9.719388
2022-12-05T02:04:39.648Z,9.719128
2022-12-05T02:05:39.628Z,9.719392
2022-12-05T02:06:39.626Z,9.719428
2022-12-05T02:07:39.695Z,9.719297
2022-12-05T02:08:39.610Z,9.719103
2022-12-05T02:09:39.593Z,9.719447
2022-12-05T02:10:39.586Z,9.719075
2022-12-05T02:11:39.576Z,9.719290
2022-12-05T02:12:39.590Z,9.719501
2022-12-05T02:13:39.586Z,9.719316
2022-12-05T02:14:39.536Z,9.719230
2022-12-05T02:15:39.533Z,9.719191
2022-12-05T02:16:39.583Z,9.719103
2022-12-05T02:17:39.524Z,9.719221
2022-12-05T02:18:39.515Z,9.719290
2022-12-05T02:19:39.533Z,9.719504
2022-12-05T02:20:39.498Z,9.719179
2022-12-05T02:21:39.492Z,9.719185
2022-12-05T02:22:39.475Z,9.719177
2022-12-05T02:23:39.466Z,9.719237
2022-12-05T02:24:39.468Z,9.719272
2022-12-05T02:25:39.444Z,9.719480
2022-12-05T02:26:39.450Z,9.719703
2022-12-05T02:27:39.445Z,9.719513
2022-12-05T02:28:39.437Z,9.719389
2022-12-05T02:29:39.398Z,9.719375
2022-12-05T02:30:39.392Z,9.719401
2022-12-05T02:31:39.483Z,9.719404
2022-12-05T02:32:39.407Z,9.719167
2022-12-05T02:33:39.368Z,9.719169
2022-12-05T02:34:39.354Z,9.719024
2022-12-05T02:35:39.341Z,9.719254
2022-12-05T02:36:39.341Z,9.719392
2022-12-05T02:37:39.351Z,9.719395
2022-12-05T02:38:39.327Z,9.719435
2022-12-05T02:39:39.312Z,9.719433
2022-12-05T02:40:39.334Z,9.719321
2022-12-05T02:41:39.297Z,9.719428
2022-12-05T02:42:39.298Z,9.719443
2022-12-05T02:43:39.289Z,9.719414
2022-12-05T02:44:39.247Z,9.719450
2022-12-05T02:45:39.264Z,9.719377
2022-12-05T02:46:39.239Z,9.719377
2022-12-05T02:47:39.206Z,9.719343
2022-12-05T02:48:39.233Z,9.719194
2022-12-05T02:49:39.233Z,9.719455
2022-12-05T02:50:39.198Z,9.719342
2022-12-05T02:51:39.181Z,9.719439
2022-12-05T02:52:39.168Z,9.719419
2022-12-05T02:53:39.170Z,9.719514
2022-12-05T02:54:39.175Z,9.719254
2022-12-05T02:55:39.156Z,9.719376
2022-12-05T02:56:39.132Z,9.719543
2022-12-05T02:57:39.127Z,9.719294
2022-12-05T02:58:39.124Z,9.719365
2022-12-05T03:00:11.012Z,9.719423
2022-12-05T03:00:39.158Z,9.719404
2022-12-05T03:01:39.131Z,9.719423
2022-12-05T03:02:39.121Z,9.719412
2022-12-05T03:03:39.090Z,9.719320
2022-12-05T03:04:39.104Z,9.719272
2022-12-05T03:05:39.079Z,9.719287
2022-12-05T03:06:39.048Z,9.719418
2022-12-05T03:07:39.098Z,9.719351
2022-12-05T03:08:39.018Z,9.719208
2022-12-05T03:09:39.017Z,9.719299
2022-12-05T03:10:39.011Z,9.719421
2022-12-05T03:11:38.981Z,9.719471
2022-12-05T03:12:38.997Z,9.719356
2022-12-05T03:13:38.979Z,9.719363
2022-12-05T03:14:38.952Z,9.719275
2022-12-05T03:15:38.977Z,9.719437
2022-12-05T03:16:38.963Z,9.718850
2022-12-05T03:17:38.930Z,9.719018
2022-12-05T03:18:38.917Z,9.719356
2022-12-05T03:19:38.928Z,9.719439
2022-12-05T03:20:38.943Z,9.719634
2022-12-05T03:21:38.905Z,9.719638
2022-12-05T03:22:38.886Z,9.719850
2022-12-05T03:23:38.891Z,9.720002
2022-12-05T03:24:38.866Z,9.720295
2022-12-05T03:25:38.879Z,9.720358
2022-12-05T03:26:38.885Z,9.720016
2022-12-05T03:27:38.838Z,9.720313
2022-12-05T03:28:38.817Z,9.720390
2022-12-05T03:29:38.813Z,9.720203
2022-12-05T03:30:38.866Z,9.720660
2022-12-05T03:31:38.816Z,9.719977
2022-12-05T03:32:38.805Z,9.720573
2022-12-05T03:33:38.789Z,9.720652
2022-12-05T03:34:38.764Z,9.720205
2022-12-05T03:35:38.756Z,9.720058
2022-12-05T03:36:38.756Z,9.719220
2022-12-05T03:37:38.770Z,9.719704
2022-12-05T03:38:38.732Z,9.719534
2022-12-05T03:39:38.720Z,9.719704
2022-12-05T03:40:38.799Z,9.719658
2022-12-05T03:41:38.711Z,9.719658
2022-12-05T03:42:38.683Z,9.720169
2022-12-05T03:43:38.722Z,9.720233
2022-12-05T03:44:38.678Z,9.720233
2022-12-05T03:45:38.718Z,9.720786
2022-12-05T03:46:38.756Z,9.720160
2022-12-05T03:47:38.653Z,9.719454
2022-12-05T03:48:38.658Z,9.718992
2022-12-05T03:49:38.642Z,9.719035
2022-12-05T03:50:38.694Z,9.719485
2022-12-05T03:51:38.638Z,9.719241
2022-12-05T03:53:10.972Z,9.719477
2022-12-05T03:53:40.631Z,9.719448
2022-12-05T03:54:38.594Z,9.719275
2022-12-05T03:55:38.608Z,9.719099
2022-12-05T03:56:38.584Z,9.718999
2022-12-05T03:57:38.541Z,9.718902
2022-12-05T03:58:38.536Z,9.719155
2022-12-05T03:59:38.577Z,9.719060
2022-12-05T04:00:38.529Z,9.719221
2022-12-05T04:01:38.548Z,9.719423
2022-12-05T04:02:38.512Z,9.719393
2022-12-05T04:03:38.604Z,9.719365
2022-12-05T04:04:38.520Z,9.719104
2022-12-05T04:05:38.497Z,9.719169
2022-12-05T04:06:38.486Z,9.719301
2022-12-05T04:07:38.530Z,9.719024
2022-12-05T04:08:38.470Z,9.718991
2022-12-05T04:09:38.431Z,9.719403
2022-12-05T04:10:38.437Z,9.719549
2022-12-05T04:11:38.416Z,9.719495
2022-12-05T04:12:38.427Z,9.719477
2022-12-05T04:13:38.395Z,9.719436
2022-12-05T04:14:38.385Z,9.719212
2022-12-05T04:15:38.442Z,9.719228
2022-12-05T04:16:38.364Z,9.719281
2022-12-05T04:17:38.388Z,9.719367
2022-12-05T04:18:38.379Z,9.719313
2022-12-05T04:19:38.341Z,9.719118
2022-12-05T04:20:38.313Z,9.719282
2022-12-05T04:21:39.345Z,9.719312
2022-12-05T04:22:38.333Z,9.719387
2022-12-05T04:23:39.814Z,9.719179
2022-12-05T04:24:38.306Z,9.719143
2022-12-05T04:25:38.292Z,9.719033
2022-12-05T04:26:38.274Z,9.719157
2022-12-05T04:27:38.381Z,9.719463
2022-12-05T04:28:38.251Z,9.719468
2022-12-05T04:29:38.244Z,9.719180
2022-12-05T04:30:38.264Z,9.719123
2022-12-05T04:31:38.266Z,9.719276
2022-12-05T04:32:38.227Z,9.719377
2022-12-05T04:33:38.200Z,9.719237
2022-12-05T04:34:38.212Z,9.719355
2022-12-05T04:35:38.213Z,9.719629
2022-12-05T04:36:38.170Z,9.719447
2022-12-05T04:37:38.147Z,9.719344
2022-12-05T04:38:38.156Z,9.719160
2022-12-05T04:39:38.153Z,9.719230
2022-12-05T04:40:38.114Z,9.719203
2022-12-05T04:41:38.133Z,9.719045
2022-12-05T04:42:38.116Z,9.719098
2022-12-05T04:43:38.112Z,9.719103
2022-12-05T04:44:38.088Z,9.719164
2022-12-05T04:45:38.079Z,9.719322
2022-12-05T04:46:38.126Z,9.719242
2022-12-05T04:47:38.065Z,9.719296
2022-12-05T04:48:38.049Z,9.719254
2022-12-05T04:49:38.044Z,9.719235
2022-12-05T04:50:38.027Z,9.719213
2022-12-05T04:51:38.019Z,9.719284
2022-12-05T04:52:38.003Z,9.719150
2022-12-05T04:53:37.992Z,9.719147
2022-12-05T04:54:37.999Z,9.719207
2022-12-05T04:55:37.969Z,9.719163
2022-12-05T04:56:37.968Z,9.719167
2022-12-05T04:57:37.967Z,9.719049
2022-12-05T04:58:37.950Z,9.718999
2022-12-05T04:59:37.960Z,9.719069
2022-12-05T05:00:37.918Z,9.719145
2022-12-05T05:01:37.978Z,9.719081
2022-12-05T05:02:37.951Z,9.719111
2022-12-05T05:03:37.899Z,9.719089
2022-12-05T05:04:37.886Z,9.719071
2022-12-05T05:05:37.874Z,9.719054
2022-12-05T05:06:38.911Z,9.719067
2022-12-05T05:07:37.899Z,9.719169
2022-12-05T05:08:37.839Z,9.719033
2022-12-05T05:09:37.860Z,9.719015
2022-12-05T05:10:37.842Z,9.719129
2022-12-05T05:11:37.848Z,9.719169
2022-12-05T05:12:37.820Z,9.719126
2022-12-05T05:13:37.805Z,9.719137
2022-12-05T05:14:37.782Z,9.719088
2022-12-05T05:15:38.861Z,9.719141
2022-12-05T05:16:37.909Z,9.719122
2022-12-05T05:17:37.759Z,9.719067
2022-12-05T05:18:37.752Z,9.719183
2022-12-05T05:19:37.746Z,9.719126
2022-12-05T05:20:37.732Z,9.719067
2022-12-05T05:21:37.733Z,9.719037
2022-12-05T05:22:37.712Z,9.719091
2022-12-05T05:23:37.711Z,9.719129
2022-12-05T05:24:37.674Z,9.719151
2022-12-05T05:25:37.687Z,9.719161
2022-12-05T05:26:37.687Z,9.719135
2022-12-05T05:27:37.648Z,9.719147
2022-12-05T05:28:37.633Z,9.719127
2022-12-05T05:29:37.671Z,9.719082
2022-12-05T05:30:37.628Z,9.719172
2022-12-05T05:31:37.678Z,9.719182
2022-12-05T05:32:37.632Z,9.719091
2022-12-05T05:33:37.608Z,9.719102
2022-12-05T05:34:37.607Z,9.719106
2022-12-05T05:35:37.577Z,9.719102
2022-12-05T05:36:37.554Z,9.719032
2022-12-05T05:37:37.565Z,9.719149
2022-12-05T05:38:37.535Z,9.719132
2022-12-05T05:39:37.602Z,9.719007
2022-12-05T05:40:37.541Z,9.719125
2022-12-05T05:41:37.549Z,9.719131
2022-12-05T05:42:37.545Z,9.719169
2022-12-05T05:43:37.498Z,9.719123
2022-12-05T05:44:37.495Z,9.719054
2022-12-05T05:45:37.486Z,9.719098
2022-12-05T05:46:37.538Z,9.719172
2022-12-05T05:47:37.492Z,9.719201
2022-12-05T05:48:37.448Z,9.719227
2022-12-05T05:49:37.441Z,9.719228
2022-12-05T05:50:37.438Z,9.719338
2022-12-05T05:51:37.428Z,9.719290
2022-12-05T05:52:37.439Z,9.719128
2022-12-05T05:53:37.431Z,9.719146
2022-12-05T05:54:37.378Z,9.719050
2022-12-05T05:55:37.393Z,9.718996
2022-12-05T05:56:37.382Z,9.719125
2022-12-05T05:57:37.369Z,9.719209
2022-12-05T05:58:37.366Z,9.719139
2022-12-05T05:59:37.351Z,9.719188
2022-12-05T06:00:37.328Z,9.719074
2022-12-05T06:01:37.326Z,9.719110
2022-12-05T06:02:37.563Z,9.718961
2022-12-05T06:03:37.470Z,9.718987
2022-12-05T06:04:37.333Z,9.718889
2022-12-05T06:05:37.271Z,9.719112
2022-12-05T06:06:37.265Z,9.719138
2022-12-05T06:07:37.274Z,9.719143
2022-12-05T06:08:37.258Z,9.718966
2022-12-05T06:09:37.246Z,9.719046
2022-12-05T06:10:37.210Z,9.719077
2022-12-05T06:11:37.209Z,9.719181
2022-12-05T06:12:37.194Z,9.719252
2022-12-05T06:13:37.212Z,9.719338
2022-12-05T06:14:37.194Z,9.719302
2022-12-05T06:15:37.169Z,9.719047
2022-12-05T06:16:37.213Z,9.719116
2022-12-05T06:17:37.162Z,9.719306
2022-12-05T06:18:37.212Z,9.719296
2022-12-05T06:19:37.150Z,9.719260
2022-12-05T06:20:37.132Z,9.719196
2022-12-05T06:21:37.141Z,9.719260
2022-12-05T06:22:37.116Z,9.719163
2022-12-05T06:23:37.118Z,9.719290
2022-12-05T06:24:37.081Z,9.719122
2022-12-05T06:25:37.099Z,9.719161
2022-12-05T06:26:37.087Z,9.719140
2022-12-05T06:27:37.060Z,9.719096
2022-12-05T06:28:37.087Z,9.719082
2022-12-05T06:29:37.046Z,9.719260
2022-12-05T06:30:37.041Z,9.719195
2022-12-05T06:31:37.070Z,9.719235
2022-12-05T06:32:37.027Z,9.719225
2022-12-05T06:33:36.999Z,9.719261
2022-12-05T06:34:37.008Z,9.719268
2022-12-05T06:35:36.987Z,9.719338
2022-12-05T06:36:37.995Z,9.719184
2022-12-05T06:37:36.991Z,9.719240
2022-12-05T06:38:41.845Z,9.719213
2022-12-05T06:39:37.949Z,9.719205
2022-12-05T06:40:36.977Z,9.719059
2022-12-05T06:41:36.952Z,9.719074
2022-12-05T06:42:36.918Z,9.719074
2022-12-05T06:43:36.927Z,9.719074
2022-12-05T06:44:36.905Z,9.719074
2022-12-05T06:45:36.921Z,9.719074
2022-12-05T06:46:36.906Z,9.719074
2022-12-05T06:47:36.870Z,9.719074
2022-12-05T06:48:36.862Z,9.719454
2022-12-05T06:49:38.284Z,9.718954
2022-12-05T06:50:36.854Z,9.718485
2022-12-05T06:51:36.869Z,9.718958
2022-12-05T06:52:36.830Z,9.719106
2022-12-05T06:53:36.793Z,9.719121
2022-12-05T06:54:36.808Z,9.719187
2022-12-05T06:55:36.792Z,9.719248
2022-12-05T06:56:36.794Z,9.719380
2022-12-05T06:57:36.788Z,9.719283
2022-12-05T06:58:36.765Z,9.719231
2022-12-05T06:59:36.763Z,9.719204
2022-12-05T07:00:36.739Z,9.719260
2022-12-05T07:01:36.822Z,9.719257
2022-12-05T07:02:36.749Z,9.719329
2022-12-05T07:03:36.731Z,9.719339
2022-12-05T07:04:36.716Z,9.719344
2022-12-05T07:05:36.687Z,9.719402
2022-12-05T07:06:36.692Z,9.719392
2022-12-05T07:07:36.726Z,9.719316
2022-12-05T07:08:36.672Z,9.719327
2022-12-05T07:09:36.654Z,9.719311
2022-12-05T07:10:36.659Z,9.719348
2022-12-05T07:11:36.692Z,9.719290
2022-12-05T07:12:36.621Z,9.719254
2022-12-05T07:13:36.625Z,9.719338
2022-12-05T07:14:47.636Z,9.719393
2022-12-05T07:15:37.606Z,9.719398
2022-12-05T07:16:36.618Z,9.719392
2022-12-05T07:17:36.580Z,9.719373
2022-12-05T07:18:36.561Z,9.719377
2022-12-05T07:19:36.563Z,9.719373
2022-12-05T07:21:10.274Z,9.719327
2022-12-05T07:21:38.532Z,9.719337
2022-12-05T07:22:36.517Z,9.719332
2022-12-05T07:23:36.526Z,9.719383
2022-12-05T07:24:36.505Z,9.719311
2022-12-05T07:25:36.501Z,9.719279
2022-12-05T07:26:36.483Z,9.719250
2022-12-05T07:27:36.474Z,9.719295
2022-12-05T07:28:36.477Z,9.719280
2022-12-05T07:29:36.467Z,9.719298
2022-12-05T07:30:36.453Z,9.719378
2022-12-05T07:31:36.497Z,9.719358
2022-12-05T07:32:36.441Z,9.719316
2022-12-05T07:33:36.423Z,9.719303
2022-12-05T07:34:37.403Z,9.719317
2022-12-05T07:35:36.421Z,9.719305
2022-12-05T07:36:36.384Z,9.719500
2022-12-05T07:37:36.402Z,9.719479
2022-12-05T07:38:36.379Z,9.719505
2022-12-05T07:39:36.352Z,9.719535
2022-12-05T07:40:36.354Z,9.719409
2022-12-05T07:41:36.359Z,9.719325
2022-12-05T07:42:36.320Z,9.719358
2022-12-05T07:43:36.323Z,9.719361
2022-12-05T07:44:36.316Z,9.719232
2022-12-05T07:45:36.350Z,9.719327
2022-12-05T07:46:36.277Z,9.719236
2022-12-05T07:47:36.382Z,9.719235
2022-12-05T07:48:36.285Z,9.719390
2022-12-05T07:49:36.250Z,9.719285
2022-12-05T07:50:36.251Z,9.719294
2022-12-05T07:51:36.233Z,9.719556
2022-12-05T07:52:36.221Z,9.719624
2022-12-05T07:53:36.234Z,9.719549
2022-12-05T07:54:36.203Z,9.719496
2022-12-05T07:55:36.183Z,9.719266
2022-12-05T07:56:36.204Z,9.719449
2022-12-05T07:57:36.172Z,9.719310
2022-12-05T07:58:36.178Z,9.719140
2022-12-05T07:59:36.204Z,9.719291
2022-12-05T08:00:36.155Z,9.719352
2022-12-05T08:01:36.193Z,9.719262
2022-12-05T08:02:40.486Z,9.719303
2022-12-05T08:03:37.121Z,9.719386
2022-12-05T08:04:36.135Z,9.719253
2022-12-05T08:05:36.109Z,9.719325
2022-12-05T08:06:37.105Z,9.719465
2022-12-05T08:07:36.111Z,9.719487
2022-12-05T08:08:36.067Z,9.719590
2022-12-05T08:09:36.051Z,9.719572
2022-12-05T08:10:36.085Z,9.719476
2022-12-05T08:11:36.045Z,9.719479
2022-12-05T08:12:36.027Z,9.719413
2022-12-05T08:13:36.024Z,9.719287
2022-12-05T08:14:36.026Z,9.719275
2022-12-05T08:15:36.044Z,9.719349
2022-12-05T08:16:37.098Z,9.719256
2022-12-05T08:17:35.982Z,9.719204
2022-12-05T08:18:35.982Z,9.719214
2022-12-05T08:19:36.998Z,9.719301
2022-12-05T08:20:35.976Z,9.719328
2022-12-05T08:21:35.951Z,9.719356
2022-12-05T08:22:35.927Z,9.719409
2022-12-05T08:23:35.946Z,9.719378
2022-12-05T08:24:35.927Z,9.719438
2022-12-05T08:25:35.922Z,9.719417
2022-12-05T08:26:35.886Z,9.719349
2022-12-05T08:27:35.890Z,9.719502
2022-12-05T08:28:35.896Z,9.719320
2022-12-05T08:29:35.906Z,9.719349
2022-12-05T08:30:35.927Z,9.719321
2022-12-05T08:31:35.865Z,9.719237
2022-12-05T08:32:35.861Z,9.719367
2022-12-05T08:33:35.874Z,9.719360
2022-12-05T08:34:35.826Z,9.719258
2022-12-05T08:35:35.807Z,9.719213
2022-12-05T08:36:35.821Z,9.719179
2022-12-05T08:37:35.802Z,9.719269
2022-12-05T08:38:35.788Z,9.719389
2022-12-05T08:39:38.628Z,9.719348
2022-12-05T08:40:36.784Z,9.719354
2022-12-05T08:41:35.745Z,9.719433
2022-12-05T08:42:35.751Z,9.719462
2022-12-05T08:43:35.753Z,9.719300
2022-12-05T08:44:35.758Z,9.719213
2022-12-05T08:45:35.708Z,9.719219
2022-12-05T08:46:35.753Z,9.719391
2022-12-05T08:47:35.720Z,9.719320
2022-12-05T08:48:35.677Z,9.719225
2022-12-05T08:49:35.703Z,9.719327
2022-12-05T08:50:35.652Z,9.719360
2022-12-05T08:51:35.666Z,9.719357
2022-12-05T08:52:35.728Z,9.719378
2022-12-05T08:53:39.550Z,9.719375
2022-12-05T08:54:37.644Z,9.719375
2022-12-05T08:55:35.622Z,9.719375
2022-12-05T08:56:35.603Z,9.719375
2022-12-05T08:57:35.606Z,9.719546
2022-12-05T08:58:35.591Z,9.719546
2022-12-05T08:59:35.716Z,9.719546
2022-12-05T09:01:07.503Z,9.719546
2022-12-05T09:01:35.591Z,9.719399
2022-12-05T09:02:35.613Z,9.719282
2022-12-05T09:03:35.546Z,9.719282
2022-12-05T09:04:35.527Z,9.719282
2022-12-05T09:05:35.533Z,9.719282
2022-12-05T09:06:35.517Z,9.719282
2022-12-05T09:07:35.549Z,9.719282
2022-12-05T09:08:35.477Z,9.719282
2022-12-05T09:09:35.472Z,9.719282
2022-12-05T09:10:35.483Z,9.719282
2022-12-05T09:11:35.472Z,9.719282
2022-12-05T09:12:35.452Z,9.719282
2022-12-05T09:13:35.448Z,9.719043
2022-12-05T09:14:35.433Z,9.718903
2022-12-05T09:15:35.449Z,9.718903
2022-12-05T09:16:38.115Z,9.718903
2022-12-05T09:17:36.427Z,9.718903
2022-12-05T09:18:38.201Z,9.718903
2022-12-05T09:19:35.390Z,9.718903
2022-12-05T09:20:35.385Z,9.718903
2022-12-05T09:21:35.434Z,9.718903
2022-12-05T09:22:35.340Z,9.718903
2022-12-05T09:23:35.336Z,9.718903
2022-12-05T09:24:35.362Z,9.718903
2022-12-05T09:25:35.326Z,9.718903
2022-12-05T09:26:35.312Z,9.718903
2022-12-05T09:27:35.302Z,9.718903
2022-12-05T09:28:35.295Z,9.718903
2022-12-05T09:29:35.283Z,9.718903
2022-12-05T09:30:35.295Z,9.718903
2022-12-05T09:31:35.315Z,9.718903
2022-12-05T09:32:35.243Z,9.718903
2022-12-05T09:33:35.241Z,9.718903
2022-12-05T09:34:35.263Z,9.718903
2022-12-05T09:35:35.309Z,9.718903
2022-12-05T09:36:35.265Z,9.718903
2022-12-05T09:37:39.842Z,9.718903
2022-12-05T09:38:37.191Z,9.718903
2022-12-05T09:39:35.215Z,9.718903
2022-12-05T09:40:35.167Z,9.718903
2022-12-05T09:41:35.177Z,9.718903
2022-12-05T09:42:35.154Z,9.718903
2022-12-05T09:43:35.155Z,9.718726
2022-12-05T09:44:35.146Z,9.718355
2022-12-05T09:45:35.133Z,9.718934
2022-12-05T09:46:35.919Z,9.718575
2022-12-05T09:47:36.119Z,9.717745
2022-12-05T09:48:35.090Z,9.717745
2022-12-05T09:49:35.080Z,9.718500
2022-12-05T09:50:35.078Z,9.718060
2022-12-05T09:51:35.056Z,9.718060
2022-12-05T09:52:35.077Z,9.718060
2022-12-05T09:53:35.055Z,9.718060
2022-12-05T09:54:35.020Z,9.718060
2022-12-05T09:55:35.040Z,9.718060
2022-12-05T09:56:35.028Z,9.718060
2022-12-05T09:57:35.004Z,9.718060
2022-12-05T09:58:35.036Z,9.718060
2022-12-05T09:59:35.005Z,9.718060
2022-12-05T10:00:34.989Z,9.718060
2022-12-05T10:01:35.047Z,9.718060
2022-12-05T10:02:34.949Z,9.718060
2022-12-05T10:03:35.020Z,9.718060
2022-12-05T10:04:35.988Z,9.718060
2022-12-05T10:05:34.928Z,9.719187
2022-12-05T10:06:34.918Z,9.719039
2022-12-05T10:07:34.970Z,9.718721
2022-12-05T10:08:34.906Z,9.718754
2022-12-05T10:09:34.902Z,9.719045
2022-12-05T10:10:34.879Z,9.718972
2022-12-05T10:11:34.870Z,9.719249
2022-12-05T10:12:34.867Z,9.719337
2022-12-05T10:13:34.873Z,9.719105
2022-12-05T10:14:34.858Z,9.719142
2022-12-05T10:15:34.863Z,9.719469
2022-12-05T10:16:34.923Z,9.719641
2022-12-05T10:17:34.830Z,9.719639
2022-12-05T10:18:34.795Z,9.719494
2022-12-05T10:19:34.797Z,9.719369
2022-12-05T10:20:34.789Z,9.719334
2022-12-05T10:21:34.793Z,9.719409
2022-12-05T10:22:34.805Z,9.719412
2022-12-05T10:23:56.431Z,9.719473
2022-12-05T10:24:35.744Z,9.719370
2022-12-05T10:25:34.741Z,9.719297
2022-12-05T10:26:34.740Z,9.719288
2022-12-05T10:27:39.764Z,9.719066
2022-12-05T10:28:34.713Z,9.719221
2022-12-05T10:29:34.704Z,9.719475
2022-12-05T10:30:34.706Z,9.719756
2022-12-05T10:31:34.783Z,9.719735
2022-12-05T10:32:34.664Z,9.719657
2022-12-05T10:33:34.721Z,9.719264
2022-12-05T10:34:34.649Z,9.719164
2022-12-05T10:35:34.628Z,9.719214
2022-12-05T10:36:34.673Z,9.719447
2022-12-05T10:37:34.619Z,9.719579
2022-12-05T10:38:34.687Z,9.719674
2022-12-05T10:39:34.597Z,9.719653
2022-12-05T10:40:34.595Z,9.719521
2022-12-05T10:41:34.620Z,9.719329
2022-12-05T10:42:34.577Z,9.719133
2022-12-05T10:43:34.579Z,9.719223
2022-12-05T10:44:34.541Z,9.719267
2022-12-05T10:45:34.537Z,9.719264
2022-12-05T10:46:34.607Z,9.719262
2022-12-05T10:47:34.519Z,9.719284
2022-12-05T10:48:34.533Z,9.719309
2022-12-05T10:49:34.507Z,9.719141
2022-12-05T10:50:34.489Z,9.719172
2022-12-05T10:51:37.715Z,9.719150
2022-12-05T10:52:34.493Z,9.719084
2022-12-05T10:53:34.462Z,9.719130
2022-12-05T10:54:34.463Z,9.719133
2022-12-05T10:55:34.459Z,9.719071
2022-12-05T10:56:34.980Z,9.719110
2022-12-05T10:57:34.448Z,9.719137
2022-12-05T10:58:34.407Z,9.719135
2022-12-05T10:59:34.404Z,9.719116
2022-12-05T11:00:34.397Z,9.719113
2022-12-05T11:01:34.417Z,9.719143
2022-12-05T11:02:34.396Z,9.719176
2022-12-05T11:03:34.353Z,9.719251
2022-12-05T11:04:34.478Z,9.719195
2022-12-05T11:05:34.396Z,9.719149
2022-12-05T11:06:34.334Z,9.719062
2022-12-05T11:07:34.428Z,9.719091
2022-12-05T11:09:03.131Z,9.719076
2022-12-05T11:09:36.305Z,9.719086
2022-12-05T11:10:34.308Z,9.719063
2022-12-05T11:11:34.302Z,9.719055
2022-12-05T11:12:34.289Z,9.719284
2022-12-05T11:13:34.258Z,9.719282
2022-12-05T11:14:34.271Z,9.719231
2022-12-05T11:15:34.246Z,9.719428
2022-12-05T11:16:34.291Z,9.719252
2022-12-05T11:17:34.224Z,9.719340
2022-12-05T11:18:34.220Z,9.719094
2022-12-05T11:19:34.195Z,9.719170
2022-12-05T11:20:34.274Z,9.719219
2022-12-05T11:21:34.175Z,9.718977
2022-12-05T11:22:34.167Z,9.719042
2022-12-05T11:23:34.165Z,9.718958
2022-12-05T11:24:34.152Z,9.719140
2022-12-05T11:25:34.168Z,9.719312
2022-12-05T11:26:34.138Z,9.719104
2022-12-05T11:27:34.132Z,9.719196
2022-12-05T11:28:34.117Z,9.718629
2022-12-05T11:29:34.128Z,9.719166
2022-12-05T11:30:34.144Z,9.719171
2022-12-05T11:31:34.138Z,9.719307
2022-12-05T11:32:35.095Z,9.719338
2022-12-05T11:33:34.071Z,9.719153
2022-12-05T11:34:34.048Z,9.719163
2022-12-05T11:35:34.052Z,9.719113
2022-12-05T11:36:34.054Z,9.719080
2022-12-05T11:37:34.061Z,9.719122
2022-12-05T11:38:34.012Z,9.719131
2022-12-05T11:39:34.025Z,9.719137
2022-12-05T11:40:38.129Z,9.718946
2022-12-05T11:41:34.998Z,9.719007
2022-12-05T11:42:33.982Z,9.719055
2022-12-05T11:43:33.968Z,9.719108
2022-12-05T11:44:33.974Z,9.719197